KMRN/MRN METAR and TAF weather

Enter ICAO airport designator
Station Type Date Time Source
KMRN METAR 2021/06/23 00:15 UTC NOAA

KMRN 230015Z AUTO 00000KT 10SM CLR 24/12 A3001 RMK AO2 T02380121


Station Type Date Time Source
KMRN Decoded METAR 2021/06/23 00:15 UTC NOAA

Morganton, Morganton-Lenoir Airport, NC, United States (KMRN) 35-49-17N 081-36-39W
Jun 22, 2021 - 08:15 PM EDT / 2021.06.23 0015 UTC
Wind: Calm:0
Visibility: 10 mile(s):0
Sky conditions: clear
Temperature: 74.8 F (23.8 C)
Dew Point: 53.8 F (12.1 C)
Relative Humidity: 47%
Pressure (altimeter): 30.01 in. Hg (1016 hPa)
ob: KMRN 230015Z AUTO 00000KT 10SM CLR 24/12 A3001 RMK AO2 T02380121
cycle: 0

Station Type Date Time Source
KMRN TAF UTC NOAA

Error!

Example: see airport list